Terminal Aerodrome Forecast
Issued by NWS

Home | Current Version | Previous Version | Graphics & Text | Print | Product List | Glossary On
Versions: 1 2 3 4 5 6 7 8 9 10 11 12 13 14 15 16 17 18 19 20 21 22 23 24 25 26 27 28 29 30 31 32 33
000
FTUS43 KLOT 161600 AAB
TAFORD
TAF AMD
KORD 161607Z 1616/1718 30012KT 6SM -SHRA BR OVC010
     FM161900 31016G25KT P6SM OVC012
     FM170100 30015G22KT P6SM OVC025
     FM170800 29012KT P6SM BKN030=

USA.gov is the U.S. government's official web portal to all federal, state and local government web resources and services.